Latest Weather Observations for North Head

IDN60901

Issued at 4:51 pm EDT Thursday 21 February 2019 (issued every 10 minutes, with the page automatically refreshed every 10 minutes)

About weather observations | Map of Sydney area stations | Latest observations for Sydney area | Other Formats
Station Details ID: 066197 Name: NORTH HEAD Lat: -33.82 Lon: 151.30 Height: 90.0 m
Data from the previous 72 hours. | See also: Recent months at North Head
Date/Time
EDT
Temp
°C
App
Temp
°C
Dew
Point
°C
Rel
Hum
%
Delta-T
°C
Wind Press
QNH
hPa
Press
MSL
hPa
Rain since
9am
mm
Dir  Spd
km/h
Gust
km/h
Spd
kts
Gust
kts
21/04:30pm - - - - - SSW 15 26 8 14 - - -
21/04:00pm - - - - - S 19 28 10 15 - - -
21/03:30pm - - - - - S 19 30 10 16 - - -
21/03:00pm - - - - - S 15 24 8 13 - - -
21/02:30pm - - - - - S 15 28 8 15 - - -
21/02:00pm - - - - - S 17 24 9 13 - - -
21/01:30pm - - - - - S 17 26 9 14 - - -
21/01:00pm - - - - - S 17 28 9 15 - - -
21/12:30pm - - - - - SSW 15 24 8 13 - - -
21/12:00pm - - - - - S 17 32 9 17 - - -
21/11:30am - - - - - S 15 22 8 12 - - -
21/11:00am - - - - - S 15 24 8 13 - - -
21/10:30am - - - - - S 13 20 7 11 - - -
21/10:00am - - - - - SSE 11 19 6 10 - - -
21/09:30am - - - - - ESE 17 26 9 14 - - -
21/09:00am - - - - - ESE 20 26 11 14 - - -
21/08:30am - - - - - ESE 20 28 11 15 - - -
21/08:00am - - - - - SE 17 24 9 13 - - -
21/07:30am - - - - - SE 11 19 6 10 - - -
21/07:00am - - - - - SE 19 26 10 14 - - -
21/06:30am - - - - - SE 19 30 10 16 - - -
21/06:00am - - - - - ESE 24 35 13 19 - - -
21/05:30am - - - - - ESE 28 35 15 19 - - -
21/05:00am - - - - - ESE 19 28 10 15 - - -
21/04:30am - - - - - ESE 22 28 12 15 - - -
21/04:00am - - - - - SE 19 30 10 16 - - -
21/03:30am - - - - - SE 22 33 12 18 - - -
21/03:00am - - - - - SE 26 43 14 23 - - -
21/02:30am - - - - - ESE 26 41 14 22 - - -
21/02:00am - - - - - SE 26 41 14 22 - - -
21/01:30am - - - - - SE 26 35 14 19 - - -
21/01:00am - - - - - SE 20 32 11 17 - - -
21/12:30am - - - - - SE 20 30 11 16 - - -
21/12:00am - - - - - SE 22 33 12 18 - - -
 
Date/Time
EDT
Temp
°C
App
Temp
°C
Dew
Point
°C
Rel
Hum
%
Delta-T
°C
Wind Press
QNH
hPa
Press
MSL
hPa
Rain since
9am
mm
Dir  Spd
km/h
Gust
km/h
Spd
kts
Gust
kts
20/11:30pm - - - - - SE 20 33 11 18 - - -
20/11:00pm - - - - - SE 20 30 11 16 - - -
20/10:30pm - - - - - SE 19 30 10 16 - - -
20/10:00pm - - - - - ESE 22 33 12 18 - - -
20/09:30pm - - - - - ESE 22 30 12 16 - - -
20/09:00pm - - - - - SE 20 30 11 16 - - -
20/08:30pm - - - - - SE 22 32 12 17 - - -
20/08:00pm - - - - - SE 26 37 14 20 - - -
20/07:30pm - - - - - SE 26 41 14 22 - - -
20/07:00pm - - - - - SE 26 43 14 23 - - -
20/06:30pm - - - - - SE 24 37 13 20 - - -
20/06:00pm - - - - - S 15 22 8 12 - - -
20/05:30pm - - - - - S 19 28 10 15 - - -
20/05:00pm - - - - - S 20 32 11 17 - - -
20/04:30pm - - - - - S 19 30 10 16 - - -
20/04:00pm - - - - - SSW 19 28 10 15 - - -
20/03:30pm - - - - - SSW 15 28 8 15 - - -
20/03:00pm - - - - - SSW 15 24 8 13 - - -
20/02:30pm - - - - - SW 13 22 7 12 - - -
20/02:00pm - - - - - SSW 17 24 9 13 - - -
20/01:30pm - - - - - SSW 15 24 8 13 - - -
20/01:00pm - - - - - SW 13 20 7 11 - - -
20/12:30pm - - - - - SSW 13 19 7 10 - - -
20/12:00pm - - - - - SSW 13 20 7 11 - - -
20/11:30am - - - - - SSW 13 20 7 11 - - -
20/11:00am - - - - - SSW 11 19 6 10 - - -
20/10:30am - - - - - SW 13 19 7 10 - - -
20/10:00am - - - - - SW 9 17 5 9 - - -
20/09:30am - - - - - SW 11 17 6 9 - - -
20/09:00am - - - - - SW 7 11 4 6 - - -
20/08:30am - - - - - SW 11 17 6 9 - - -
20/08:00am - - - - - SW 11 15 6 8 - - -
20/07:30am - - - - - SSW 7 11 4 6 - - -
20/07:00am - - - - - WSW 9 15 5 8 - - -
20/06:30am - - - - - SW 7 11 4 6 - - -
20/06:00am - - - - - SSW 7 13 4 7 - - -
20/05:30am - - - - - SW 7 15 4 8 - - -
20/05:00am - - - - - SSW 7 11 4 6 - - -
20/04:30am - - - - - SSW 9 15 5 8 - - -
20/04:00am - - - - - SW 9 15 5 8 - - -
20/03:30am - - - - - SW 13 17 7 9 - - -
20/03:00am - - - - - SW 13 19 7 10 - - -
20/02:30am - - - - - SW 13 20 7 11 - - -
20/02:00am - - - - - SW 15 20 8 11 - - -
20/01:30am - - - - - SW 13 19 7 10 - - -
20/01:00am - - - - - WSW 11 17 6 9 - - -
20/12:30am - - - - - SW 11 17 6 9 - - -
20/12:00am - - - - - SW 11 17 6 9 - - -
 
Date/Time
EDT
Temp
°C
App
Temp
°C
Dew
Point
°C
Rel
Hum
%
Delta-T
°C
Wind Press
QNH
hPa
Press
MSL
hPa
Rain since
9am
mm
Dir  Spd
km/h
Gust
km/h
Spd
kts
Gust
kts
19/11:30pm - - - - - SW 13 20 7 11 - - -
19/11:00pm - - - - - SW 11 20 6 11 - - -
19/10:30pm - - - - - SW 15 22 8 12 - - -
19/10:00pm - - - - - SW 17 26 9 14 - - -
19/09:30pm - - - - - SW 13 22 7 12 - - -
19/09:00pm - - - - - SW 17 30 9 16 - - -
19/08:30pm - - - - - SSW 17 28 9 15 - - -
19/08:00pm - - - - - SSW 17 32 9 17 - - -
19/07:30pm - - - - - S 20 37 11 20 - - -
19/07:00pm - - - - - S 22 39 12 21 - - -
19/06:30pm - - - - - S 24 39 13 21 - - -
19/06:00pm - - - - - S 22 33 12 18 - - -
19/05:30pm - - - - - S 26 41 14 22 - - -
19/05:00pm - - - - - S 26 39 14 21 - - -
19/04:30pm - - - - - S 30 46 16 25 - - -
19/04:00pm - - - - - S 32 46 17 25 - - -
19/03:35pm - - - - - S 32 50 17 27 - - -
19/03:30pm - - - - - S 33 48 18 26 - - -
19/03:02pm - - - - - S 33 52 18 28 - - -
19/03:00pm - - - - - S 35 52 19 28 - - -
19/02:30pm - - - - - S 35 56 19 30 - - -
19/02:08pm - - - - - S 32 52 17 28 - - -
19/02:00pm - - - - - S 35 52 19 28 - - -
19/01:30pm - - - - - S 33 52 18 28 - - -
19/01:22pm - - - - - S 32 52 17 28 - - -
19/01:00pm - - - - - S 26 43 14 23 - - -
19/12:37pm - - - - - S 28 46 15 25 - - -
19/12:30pm - - - - - S 30 46 16 25 - - -
19/12:01pm - - - - - S 28 46 15 25 - - -
19/12:00pm - - - - - S 30 46 16 25 - - -
19/11:57am - - - - - S 28 46 15 25 - - -
19/11:30am - - - - - S 26 37 14 20 - - -
19/11:00am - - - - - SSE 17 32 9 17 - - -
19/10:30am - - - - - SSW 11 15 6 8 - - -
19/10:00am - - - - - SW 6 9 3 5 - - -
19/09:30am - - - - - WNW 7 13 4 7 - - -
19/09:00am - - - - - WNW 6 11 3 6 - - -
19/08:30am - - - - - N 17 26 9 14 - - -
19/08:00am - - - - - N 20 26 11 14 - - -
19/07:30am - - - - - NNE 17 22 9 12 - - -
19/07:00am - - - - - NNE 19 26 10 14 - - -
19/06:30am - - - - - NNE 19 28 10 15 - - -
19/06:00am - - - - - NNE 20 28 11 15 - - -
19/05:30am - - - - - NE 22 30 12 16 - - -
19/05:00am - - - - - ENE 20 30 11 16 - - -
19/04:30am - - - - - ENE 13 24 7 13 - - -
19/04:00am - - - - - SE 13 17 7 9 - - -
19/03:30am - - - - - SSW 9 13 5 7 - - -
19/03:00am - - - - - SW 4 9 2 5 - - -
19/02:30am - - - - - ENE 7 13 4 7 - - -
19/02:00am - - - - - ENE 11 17 6 9 - - -
19/01:30am - - - - - ENE 9 17 5 9 - - -
19/01:00am - - - - - ENE 13 17 7 9 - - -
19/12:30am - - - - - SE 9 13 5 7 - - -
19/12:00am - - - - - S 11 15 6 8 - - -
 
Date/Time
EDT
Temp
°C
App
Temp
°C
Dew
Point
°C
Rel
Hum
%
Delta-T
°C
Wind Press
QNH
hPa
Press
MSL
hPa
Rain since
9am
mm
Dir  Spd
km/h
Gust
km/h
Spd
kts
Gust
kts
18/11:30pm - - - - - W 11 32 6 17 - - -
18/11:00pm - - - - - NNE 22 35 12 19 - - -
18/10:30pm - - - - - NNE 22 33 12 18 - - -
18/10:00pm - - - - - NNE 24 37 13 20 - - -
18/09:30pm - - - - - NNE 22 35 12 19 - - -
18/09:00pm - - - - - NNE 24 35 13 19 - - -
18/08:30pm - - - - - NNE 24 37 13 20 - - -
18/08:00pm - - - - - NNE 24 32 13 17 - - -
18/07:30pm - - - - - NNE 24 37 13 20 - - -
18/07:00pm - - - - - NNE 24 35 13 19 - - -
18/06:30pm - - - - - NNE 24 37 13 20 - - -
18/06:00pm - - - - - NNE 24 35 13 19 - - -
18/05:30pm - - - - - NNE 24 33 13 18 - - -
18/05:00pm - - - - - NNE 24 32 13 17 - - -

Latest Capital City Observations: Canberra | Sydney | Melbourne | Brisbane | Adelaide | Perth | Hobart | Darwin

Other formats

Comma delimited format used in spreadsheet applications
http://www.bom.gov.au/fwo/IDN60901/IDN60901.95768.axf

JavaScript Object Notation format (JSON) in row-major order
http://www.bom.gov.au/fwo/IDN60901/IDN60901.95768.json

Data quality

Most of these data are generated automatically and are frequently updated. Quality checks on data are not normally performed. It is possible for incorrect values to appear. Refer to information at About Latest Weather Observations and please check the disclaimer before using these data.